Time;durP1;ratioP1;P1;durP2;ratioP2;P2;SDS_P1;SDS_P2;PMS_P1;PMS_P2;Temp;Humidity;BMP_temperature;BMP_pressure;BME280_temperature;BME280_humidity;BME280_pressure;Samples;Min_cycle;Max_cycle;Signal;HPM_P1;HPM_P2
2022/10/13 00:00:40;;;;;;;;;;;11.10;99.90;;;;;;4983657;28;20389;-56
2022/10/13 00:03:07;;;;;;;;;;;11.20;99.90;;;;;;4955155;28;19933;-56
2022/10/13 00:05:39;;;;;;;;;;;11.10;99.90;;;;;;5035189;28;20431;-56
2022/10/13 00:08:07;;;;;;;;;;;11.10;99.90;;;;;;4987266;28;19924;-56
2022/10/13 00:10:41;;;;;;;;;;;11.10;99.90;;;;;;4986868;28;19926;-56
2022/10/13 00:13:11;;;;;;;;;;;11.10;99.90;;;;;;4969868;28;19933;-56
2022/10/13 00:15:40;;;;;;;;;;;11.10;99.90;;;;;;4979797;28;19929;-55
2022/10/13 00:18:07;;;;;;;;;;;11.10;99.90;;;;;;5010371;28;19924;-55
2022/10/13 00:20:35;;;;;;;;;;;11.10;99.90;;;;;;5060263;28;19925;-54
2022/10/13 00:23:02;;;;;;;;;;;11.10;99.90;;;;;;4965889;28;19926;-56
2022/10/13 00:25:30;;;;;;;;;;;11.10;99.90;;;;;;5003944;28;19926;-55
2022/10/13 00:27:58;;;;;;;;;;;11.10;99.90;;;;;;4990841;28;19928;-55
2022/10/13 00:30:35;;;;;;;;;;;11.10;99.90;;;;;;5032727;28;19926;-55
2022/10/13 00:33:02;;;;;;;;;;;11.10;99.90;;;;;;4967411;28;19927;-55
2022/10/13 00:35:30;;;;;;;;;;;11.10;99.90;;;;;;4993402;28;20385;-55
2022/10/13 00:37:57;;;;;;;;;;;11.10;99.90;;;;;;4983052;28;19931;-55
2022/10/13 00:40:29;;;;;;;;;;;11.10;99.90;;;;;;4964048;28;19926;-56
2022/10/13 00:42:57;;;;;;;;;;;11.10;99.90;;;;;;4986503;28;20389;-55
2022/10/13 00:45:26;;;;;;;;;;;11.10;99.90;;;;;;4976563;28;19926;-56
2022/10/13 00:47:57;;;;;;;;;;;11.10;99.90;;;;;;4987594;28;20346;-55
2022/10/13 00:50:28;;;;;;;;;;;11.10;99.90;;;;;;5068344;28;19936;-56
2022/10/13 00:52:57;;;;;;;;;;;11.00;99.90;;;;;;4965359;28;19926;-56
2022/10/13 00:55:27;;;;;;;;;;;11.10;99.90;;;;;;5050391;28;19931;-56
2022/10/13 00:57:55;;;;;;;;;;;11.00;99.90;;;;;;4997044;28;19925;-55
2022/10/13 01:00:29;;;;;;;;;;;11.10;99.90;;;;;;4963976;28;19934;-56
2022/10/13 01:02:57;;;;;;;;;;;11.00;99.90;;;;;;4967973;28;19930;-56
2022/10/13 01:05:24;;;;;;;;;;;11.00;99.90;;;;;;5045231;28;19924;-56
2022/10/13 01:07:55;;;;;;;;;;;11.10;99.90;;;;;;4989311;28;19939;-55
2022/10/13 01:10:38;;;;;;;;;;;11.10;99.90;;;;;;5052666;28;19934;-56
2022/10/13 01:13:09;;;;;;;;;;;11.00;99.90;;;;;;4964379;28;19926;-55
2022/10/13 01:15:43;;;;;;;;;;;11.10;99.90;;;;;;5004317;28;19937;-55
2022/10/13 01:18:24;;;;;;;;;;;11.00;99.90;;;;;;5006577;28;19924;-55
2022/10/13 01:20:58;;;;;;;;;;;11.00;99.90;;;;;;4983498;28;19934;-55
2022/10/13 01:23:28;;;;;;;;;;;11.10;99.90;;;;;;4966582;28;19932;-55
2022/10/13 01:26:14;;;;;;;;;;;11.00;99.90;;;;;;5033601;28;19937;-55
2022/10/13 01:29:05;;;;;;;;;;;11.00;99.90;;;;;;5044801;28;19952;-55
2022/10/13 01:31:33;;;;;;;;;;;11.00;99.90;;;;;;4979874;28;19925;-56
2022/10/13 01:34:06;;;;;;;;;;;11.00;99.90;;;;;;4961551;28;19926;-55
2022/10/13 01:36:42;;;;;;;;;;;11.00;99.90;;;;;;4971024;28;19932;-55
2022/10/13 01:39:17;;;;;;;;;;;11.00;99.90;;;;;;5040966;28;19926;-55
2022/10/13 01:41:47;;;;;;;;;;;11.00;99.90;;;;;;5044186;28;19927;-55
2022/10/13 01:44:35;;;;;;;;;;;11.00;99.90;;;;;;4981737;28;19926;-56
2022/10/13 01:47:03;;;;;;;;;;;11.00;99.90;;;;;;4973523;28;19926;-55
2022/10/13 01:49:32;;;;;;;;;;;10.90;99.90;;;;;;5014551;28;19926;-55
2022/10/13 01:52:02;;;;;;;;;;;10.90;99.90;;;;;;4992194;28;19932;-55
2022/10/13 01:54:29;;;;;;;;;;;10.90;99.90;;;;;;4992155;28;19929;-56
2022/10/13 01:56:57;;;;;;;;;;;10.90;99.90;;;;;;4992425;28;19933;-54
2022/10/13 01:59:26;;;;;;;;;;;10.90;99.90;;;;;;4991946;28;19926;-55
2022/10/13 02:02:04;;;;;;;;;;;10.80;99.90;;;;;;5056228;28;19952;-55
2022/10/13 02:04:31;;;;;;;;;;;10.80;99.90;;;;;;4991910;28;19926;-55
2022/10/13 02:07:08;;;;;;;;;;;10.80;99.90;;;;;;4991950;28;20292;-55
2022/10/13 02:09:46;;;;;;;;;;;10.80;99.90;;;;;;5055058;28;19945;-55
2022/10/13 02:12:19;;;;;;;;;;;10.80;99.90;;;;;;4977692;28;19926;-55
2022/10/13 02:14:48;;;;;;;;;;;10.80;99.90;;;;;;4970503;28;20369;-55
2022/10/13 02:17:16;;;;;;;;;;;10.80;99.90;;;;;;4972551;28;19926;-55
2022/10/13 02:19:47;;;;;;;;;;;10.80;99.90;;;;;;4989767;28;19926;-55
2022/10/13 02:22:15;;;;;;;;;;;10.80;99.90;;;;;;5052432;28;19949;-55
2022/10/13 02:24:43;;;;;;;;;;;10.70;99.90;;;;;;4991053;28;19926;-55
2022/10/13 02:27:10;;;;;;;;;;;10.70;99.90;;;;;;4992948;28;19969;-55
2022/10/13 02:29:52;;;;;;;;;;;10.70;99.90;;;;;;4991832;28;19937;-55
2022/10/13 02:32:21;;;;;;;;;;;10.70;99.90;;;;;;4981990;28;19926;-55
2022/10/13 02:34:48;;;;;;;;;;;10.70;99.90;;;;;;4979599;28;19926;-55
2022/10/13 02:37:16;;;;;;;;;;;10.70;99.90;;;;;;5048659;28;19933;-55
2022/10/13 02:39:43;;;;;;;;;;;10.70;99.90;;;;;;4980199;28;20251;-55
2022/10/13 02:42:11;;;;;;;;;;;10.70;99.90;;;;;;4974004;28;19926;-55
2022/10/13 02:44:39;;;;;;;;;;;10.70;99.90;;;;;;4988685;28;19926;-55
2022/10/13 02:47:06;;;;;;;;;;;10.70;99.90;;;;;;4990488;28;20369;-55
2022/10/13 02:49:33;;;;;;;;;;;10.70;99.90;;;;;;4996543;28;19933;-55
2022/10/13 02:52:01;;;;;;;;;;;10.70;99.90;;;;;;5055169;28;19926;-55
2022/10/13 02:54:28;;;;;;;;;;;10.70;99.90;;;;;;5056067;28;20408;-55
2022/10/13 02:56:55;;;;;;;;;;;10.70;99.90;;;;;;4991348;28;19952;-55
2022/10/13 02:59:23;;;;;;;;;;;10.70;99.90;;;;;;5057881;28;19933;-55
2022/10/13 03:01:50;;;;;;;;;;;10.70;99.90;;;;;;4991351;28;19933;-55
2022/10/13 03:04:17;;;;;;;;;;;10.70;99.90;;;;;;5055660;28;19926;-56
2022/10/13 03:06:45;;;;;;;;;;;10.70;99.90;;;;;;5037791;28;19930;-55
2022/10/13 03:09:13;;;;;;;;;;;10.70;99.90;;;;;;4983745;28;19933;-55
2022/10/13 03:11:41;;;;;;;;;;;10.70;99.90;;;;;;4982702;28;19926;-55
2022/10/13 03:14:08;;;;;;;;;;;10.70;99.90;;;;;;4991360;28;19933;-56
2022/10/13 03:16:35;;;;;;;;;;;10.70;99.90;;;;;;4987966;28;19940;-55
2022/10/13 03:19:05;;;;;;;;;;;10.70;99.90;;;;;;5036797;28;19931;-55
2022/10/13 03:21:32;;;;;;;;;;;10.70;99.90;;;;;;5058062;28;19955;-55
2022/10/13 03:24:00;;;;;;;;;;;10.60;99.90;;;;;;4980004;28;19932;-55
2022/10/13 03:26:27;;;;;;;;;;;10.60;99.90;;;;;;4988009;28;19926;-55
2022/10/13 03:28:54;;;;;;;;;;;10.60;99.90;;;;;;4990915;28;19933;-55
2022/10/13 03:31:22;;;;;;;;;;;10.60;99.90;;;;;;4990893;28;19934;-54
2022/10/13 03:33:50;;;;;;;;;;;10.60;99.90;;;;;;5057538;28;19934;-55
2022/10/13 03:36:17;;;;;;;;;;;10.60;99.90;;;;;;4974185;28;19926;-56
2022/10/13 03:38:48;;;;;;;;;;;10.60;99.90;;;;;;4969172;28;19941;-56
2022/10/13 03:41:16;;;;;;;;;;;10.60;99.90;;;;;;4987800;28;19935;-55
2022/10/13 03:43:49;;;;;;;;;;;10.60;99.90;;;;;;5054510;28;19926;-55
2022/10/13 03:46:16;;;;;;;;;;;10.60;99.90;;;;;;4990850;28;19933;-58
2022/10/13 03:48:45;;;;;;;;;;;10.60;99.90;;;;;;5024875;28;19928;-55
2022/10/13 03:51:14;;;;;;;;;;;10.60;99.90;;;;;;5072806;28;19924;-59
2022/10/13 03:53:45;;;;;;;;;;;10.60;99.90;;;;;;5072753;28;19925;-56
2022/10/13 03:56:14;;;;;;;;;;;10.60;99.90;;;;;;5087944;28;19924;-55
2022/10/13 03:58:53;;;;;;;;;;;10.60;99.90;;;;;;5072417;28;19924;-55
2022/10/13 04:01:22;;;;;;;;;;;10.60;99.90;;;;;;5072519;28;19924;-55
2022/10/13 04:03:51;;;;;;;;;;;10.60;99.90;;;;;;5072494;28;19928;-55
2022/10/13 04:06:18;;;;;;;;;;;10.60;99.90;;;;;;5072485;28;19924;-55
2022/10/13 04:08:46;;;;;;;;;;;10.50;99.90;;;;;;5072247;28;19936;-54
2022/10/13 04:11:14;;;;;;;;;;;10.60;99.90;;;;;;5072373;28;19932;-55
2022/10/13 04:13:42;;;;;;;;;;;10.50;99.90;;;;;;5072392;28;20347;-55
2022/10/13 04:16:13;;;;;;;;;;;10.60;99.90;;;;;;5054348;28;20509;-55
2022/10/13 04:18:40;;;;;;;;;;;10.60;99.90;;;;;;5072050;28;19928;-55
2022/10/13 04:21:12;;;;;;;;;;;10.50;99.90;;;;;;5072161;28;19924;-55
2022/10/13 04:23:39;;;;;;;;;;;10.50;99.90;;;;;;5072188;28;20398;-55
2022/10/13 04:26:13;;;;;;;;;;;10.50;99.90;;;;;;5072262;28;19924;-55
2022/10/13 04:28:40;;;;;;;;;;;10.50;99.90;;;;;;5053634;28;19928;-55
2022/10/13 04:31:07;;;;;;;;;;;10.50;99.90;;;;;;5072164;28;19932;-55
2022/10/13 04:33:35;;;;;;;;;;;10.50;99.90;;;;;;5072105;28;19925;-56
2022/10/13 04:36:03;;;;;;;;;;;10.50;99.90;;;;;;5087614;28;20034;-55
2022/10/13 04:38:31;;;;;;;;;;;10.50;99.90;;;;;;5071751;28;19936;-55
2022/10/13 04:41:00;;;;;;;;;;;10.50;99.90;;;;;;5043169;28;19930;-55
2022/10/13 04:43:29;;;;;;;;;;;10.50;99.90;;;;;;4970624;28;20381;-55
2022/10/13 04:46:19;;;;;;;;;;;10.50;99.90;;;;;;4971984;28;19933;-55
2022/10/13 04:48:48;;;;;;;;;;;10.50;99.90;;;;;;5004645;28;19932;-55
2022/10/13 04:51:17;;;;;;;;;;;10.50;99.90;;;;;;5068567;28;19924;-55
2022/10/13 04:53:45;;;;;;;;;;;10.50;99.90;;;;;;5068658;28;20315;-55
2022/10/13 04:56:14;;;;;;;;;;;10.50;99.90;;;;;;5033143;28;21437;-55
2022/10/13 04:58:42;;;;;;;;;;;10.40;99.90;;;;;;5049809;28;20371;-55
2022/10/13 05:01:14;;;;;;;;;;;10.40;99.90;;;;;;5068597;28;19931;-55
2022/10/13 05:03:54;;;;;;;;;;;10.40;99.90;;;;;;4945263;28;19934;-55
2022/10/13 05:06:23;;;;;;;;;;;10.30;99.90;;;;;;4944273;28;19927;-55
2022/10/13 05:08:55;;;;;;;;;;;10.20;99.90;;;;;;5038313;28;19931;-55
2022/10/13 05:11:23;;;;;;;;;;;10.20;99.90;;;;;;4978401;28;19933;-55
2022/10/13 05:13:50;;;;;;;;;;;10.10;99.90;;;;;;5050894;28;19929;-55
2022/10/13 05:16:19;;;;;;;;;;;10.10;99.90;;;;;;5065691;28;19925;-55
2022/10/13 05:18:48;;;;;;;;;;;10.10;99.90;;;;;;5040245;28;19936;-55
2022/10/13 05:21:16;;;;;;;;;;;10.00;99.90;;;;;;5068324;28;19925;-55
2022/10/13 05:23:44;;;;;;;;;;;10.00;99.90;;;;;;5083479;28;20383;-55
2022/10/13 05:26:13;;;;;;;;;;;10.00;99.90;;;;;;5083856;28;20359;-55
2022/10/13 05:28:41;;;;;;;;;;;10.00;99.90;;;;;;5067877;28;19928;-55
2022/10/13 05:31:09;;;;;;;;;;;10.00;99.90;;;;;;5068107;28;19932;-55
2022/10/13 05:33:37;;;;;;;;;;;10.00;99.90;;;;;;5004461;28;19926;-55
2022/10/13 05:36:05;;;;;;;;;;;10.00;99.90;;;;;;5012028;28;19931;-55
2022/10/13 05:38:37;;;;;;;;;;;10.00;99.90;;;;;;5021927;28;20399;-56
2022/10/13 05:41:05;;;;;;;;;;;9.90;99.90;;;;;;5064219;28;19924;-55
2022/10/13 05:43:33;;;;;;;;;;;9.90;99.90;;;;;;5067710;28;19929;-56
2022/10/13 05:46:00;;;;;;;;;;;9.90;99.90;;;;;;5068086;28;19935;-55
2022/10/13 05:48:29;;;;;;;;;;;9.90;99.90;;;;;;5036226;28;19936;-56
2022/10/13 05:50:57;;;;;;;;;;;9.90;99.90;;;;;;5067067;28;19932;-55
2022/10/13 05:53:27;;;;;;;;;;;9.80;99.90;;;;;;5064255;28;20383;-56
2022/10/13 05:55:57;;;;;;;;;;;9.80;99.90;;;;;;5064628;28;19950;-55
2022/10/13 05:58:24;;;;;;;;;;;9.80;99.90;;;;;;5063881;28;20287;-55
2022/10/13 06:00:53;;;;;;;;;;;9.80;99.90;;;;;;5048753;28;19924;-55
2022/10/13 06:03:22;;;;;;;;;;;9.70;99.90;;;;;;5032148;28;19934;-56
2022/10/13 06:05:49;;;;;;;;;;;9.70;99.90;;;;;;4966500;28;19945;-55
2022/10/13 06:08:16;;;;;;;;;;;9.70;99.90;;;;;;5020840;28;20287;-55
2022/10/13 06:10:45;;;;;;;;;;;9.70;99.90;;;;;;5071380;28;19928;-56
2022/10/13 06:13:12;;;;;;;;;;;9.70;99.90;;;;;;5053309;28;20287;-56
2022/10/13 06:15:40;;;;;;;;;;;9.70;99.90;;;;;;5071225;28;20295;-55
2022/10/13 06:18:07;;;;;;;;;;;9.80;99.90;;;;;;5037086;28;20278;-55
2022/10/13 06:20:35;;;;;;;;;;;9.70;99.90;;;;;;4969291;28;19926;-55
2022/10/13 06:23:03;;;;;;;;;;;9.70;99.90;;;;;;5023677;28;19924;-55
2022/10/13 06:25:31;;;;;;;;;;;9.60;99.90;;;;;;5071217;28;19928;-55
2022/10/13 06:27:59;;;;;;;;;;;9.60;99.90;;;;;;5086301;28;19999;-55
2022/10/13 06:30:27;;;;;;;;;;;9.50;99.90;;;;;;5053072;28;19924;-55
2022/10/13 06:32:54;;;;;;;;;;;9.50;99.90;;;;;;5063314;28;19928;-55
2022/10/13 06:35:22;;;;;;;;;;;9.40;99.90;;;;;;4957831;28;19941;-55
2022/10/13 06:37:51;;;;;;;;;;;9.30;99.90;;;;;;5001179;28;19925;-56
2022/10/13 06:40:19;;;;;;;;;;;9.20;99.90;;;;;;5070948;28;19924;-56
2022/10/13 06:42:49;;;;;;;;;;;9.20;99.90;;;;;;5068935;28;19924;-55
2022/10/13 06:45:20;;;;;;;;;;;10.20;99.90;;;;;;5052307;28;19924;-55
2022/10/13 06:47:48;;;;;;;;;;;9.10;99.90;;;;;;5008478;28;19924;-55
2022/10/13 06:50:15;;;;;;;;;;;9.00;99.90;;;;;;4950599;28;19930;-55
2022/10/13 06:52:43;;;;;;;;;;;9.00;99.90;;;;;;5040681;28;20121;-56
2022/10/13 06:55:10;;;;;;;;;;;8.90;99.90;;;;;;5070765;28;19935;-56
2022/10/13 06:57:38;;;;;;;;;;;8.90;99.90;;;;;;5070123;28;19924;-56
2022/10/13 07:00:07;;;;;;;;;;;8.90;99.90;;;;;;5070436;28;19932;-56
2022/10/13 07:02:35;;;;;;;;;;;8.80;99.90;;;;;;5067478;28;20320;-56
2022/10/13 07:05:02;;;;;;;;;;;8.80;99.90;;;;;;4970389;28;19930;-56
2022/10/13 07:07:30;;;;;;;;;;;8.70;99.90;;;;;;4984363;28;19936;-57
2022/10/13 07:09:57;;;;;;;;;;;8.70;99.90;;;;;;5010556;28;19934;-55
2022/10/13 07:12:25;;;;;;;;;;;8.60;99.90;;;;;;4990307;28;19926;-55
2022/10/13 07:14:52;;;;;;;;;;;8.60;99.90;;;;;;5001645;28;19927;-54
2022/10/13 07:17:20;;;;;;;;;;;8.50;99.90;;;;;;4984864;28;20273;-55
2022/10/13 07:19:48;;;;;;;;;;;8.50;99.90;;;;;;4991706;28;19926;-55
2022/10/13 07:22:15;;;;;;;;;;;8.50;99.90;;;;;;4988875;28;19924;-55
2022/10/13 07:24:43;;;;;;;;;;;8.50;99.90;;;;;;5050389;28;19926;-55
2022/10/13 07:27:11;;;;;;;;;;;8.40;99.90;;;;;;5044119;28;19926;-55
2022/10/13 07:29:38;;;;;;;;;;;8.40;99.90;;;;;;5073461;28;20376;-54
2022/10/13 07:32:06;;;;;;;;;;;8.40;99.90;;;;;;4989248;28;19945;-55
2022/10/13 07:34:33;;;;;;;;;;;8.40;99.90;;;;;;5028376;28;19927;-55
2022/10/13 07:37:00;;;;;;;;;;;8.40;99.90;;;;;;4967800;28;19933;-55
2022/10/13 07:39:28;;;;;;;;;;;8.40;99.90;;;;;;5033288;28;19953;-55
2022/10/13 07:41:56;;;;;;;;;;;8.40;99.90;;;;;;4973571;28;19926;-55
2022/10/13 07:44:23;;;;;;;;;;;8.40;99.90;;;;;;5047239;28;19930;-55
2022/10/13 07:46:50;;;;;;;;;;;8.50;99.90;;;;;;4948866;29;19926;-55
2022/10/13 07:49:18;;;;;;;;;;;8.50;99.90;;;;;;5010498;28;19933;-55
2022/10/13 07:51:46;;;;;;;;;;;8.60;99.90;;;;;;5034023;28;19927;-55
2022/10/13 07:54:18;;;;;;;;;;;8.70;99.90;;;;;;4961970;28;19941;-55
2022/10/13 07:56:51;;;;;;;;;;;8.70;99.90;;;;;;4978976;28;20289;-56
2022/10/13 07:59:19;;;;;;;;;;;8.80;99.90;;;;;;5033754;28;19949;-56
2022/10/13 08:01:47;;;;;;;;;;;8.90;99.90;;;;;;4968154;28;19935;-56
2022/10/13 08:04:14;;;;;;;;;;;8.90;99.90;;;;;;5029223;28;19934;-54
2022/10/13 08:06:41;;;;;;;;;;;9.00;99.90;;;;;;4948326;28;19930;-54
2022/10/13 08:09:09;;;;;;;;;;;9.10;99.90;;;;;;5049285;28;19928;-54
2022/10/13 08:11:37;;;;;;;;;;;9.20;99.90;;;;;;5044354;28;20412;-54
2022/10/13 08:14:04;;;;;;;;;;;9.20;99.90;;;;;;4964283;28;19937;-54
2022/10/13 08:16:32;;;;;;;;;;;9.30;99.90;;;;;;5036799;28;19930;-56
2022/10/13 08:18:59;;;;;;;;;;;9.40;99.90;;;;;;4965275;28;19933;-55
2022/10/13 08:21:27;;;;;;;;;;;9.40;99.90;;;;;;4962705;28;20305;-55
2022/10/13 08:24:16;;;;;;;;;;;9.50;99.90;;;;;;4970965;28;19927;-55
2022/10/13 08:26:45;;;;;;;;;;;9.60;99.90;;;;;;4961848;28;20440;-55
2022/10/13 08:29:13;;;;;;;;;;;12.20;99.90;;;;;;5018464;28;19937;-55
2022/10/13 08:31:49;;;;;;;;;;;9.70;99.90;;;;;;4967270;28;19933;-54
2022/10/13 08:34:17;;;;;;;;;;;9.80;99.90;;;;;;5030574;28;19943;-54
2022/10/13 08:36:45;;;;;;;;;;;9.90;99.90;;;;;;4961889;28;20404;-55
2022/10/13 08:39:12;;;;;;;;;;;9.80;99.90;;;;;;4992128;28;20362;-55
2022/10/13 08:41:44;;;;;;;;;;;10.00;99.90;;;;;;5051339;28;19929;-55
2022/10/13 08:44:13;;;;;;;;;;;10.10;99.90;;;;;;5011143;28;20286;-55
2022/10/13 08:47:01;;;;;;;;;;;10.20;99.90;;;;;;4999705;28;19927;-55
2022/10/13 08:49:29;;;;;;;;;;;10.30;99.90;;;;;;5032127;28;19937;-55
2022/10/13 08:51:57;;;;;;;;;;;10.30;99.90;;;;;;4972676;28;20277;-56
2022/10/13 08:54:25;;;;;;;;;;;10.40;99.90;;;;;;4978687;28;19949;-55
2022/10/13 08:56:53;;;;;;;;;;;10.60;99.90;;;;;;4983864;28;20321;-56
2022/10/13 08:59:20;;;;;;;;;;;10.70;99.90;;;;;;5017403;28;19926;-56
2022/10/13 09:01:51;;;;;;;;;;;10.80;99.90;;;;;;4986382;28;20397;-56
2022/10/13 09:04:35;;;;;;;;;;;10.90;99.90;;;;;;4949578;28;19935;-56
2022/10/13 09:07:08;;;;;;;;;;;11.00;99.90;;;;;;4972656;28;19926;-56
2022/10/13 09:09:36;;;;;;;;;;;11.20;99.90;;;;;;4980503;28;19927;-56
2022/10/13 09:12:04;;;;;;;;;;;11.30;99.90;;;;;;4974885;28;19933;-57
2022/10/13 09:14:33;;;;;;;;;;;11.40;99.90;;;;;;4988592;28;19925;-56
2022/10/13 09:17:26;;;;;;;;;;;11.50;99.90;;;;;;4986099;28;19926;-56
2022/10/13 09:20:00;;;;;;;;;;;11.60;99.90;;;;;;4971932;28;20274;-57
2022/10/13 09:22:29;;;;;;;;;;;11.60;99.90;;;;;;4966025;28;19938;-57
2022/10/13 09:25:06;;;;;;;;;;;11.70;99.90;;;;;;4974253;28;19930;-57
2022/10/13 09:27:48;;;;;;;;;;;11.70;99.90;;;;;;5048618;28;19925;-56
2022/10/13 09:30:37;;;;;;;;;;;11.80;99.90;;;;;;5050367;28;20414;-57
2022/10/13 09:33:05;;;;;;;;;;;11.90;99.90;;;;;;5068075;28;19936;-57
2022/10/13 09:35:33;;;;;;;;;;;11.90;99.90;;;;;;5004109;28;19931;-57
2022/10/13 09:38:02;;;;;;;;;;;11.80;99.90;;;;;;4969795;28;19930;-57
2022/10/13 09:40:31;;;;;;;;;;;11.90;99.90;;;;;;4984931;28;19941;-56
2022/10/13 09:42:59;;;;;;;;;;;11.90;99.90;;;;;;5020661;28;19924;-57
2022/10/13 09:45:29;;;;;;;;;;;11.90;99.90;;;;;;5000742;28;19949;-57
2022/10/13 09:47:59;;;;;;;;;;;12.00;99.90;;;;;;5001859;28;20042;-56
2022/10/13 09:50:27;;;;;;;;;;;12.10;99.90;;;;;;5028566;28;19933;-57
2022/10/13 09:53:09;;;;;;;;;;;12.10;99.90;;;;;;5065350;28;19940;-57
2022/10/13 09:55:36;;;;;;;;;;;12.30;99.90;;;;;;5000822;28;19933;-56
2022/10/13 09:58:14;;;;;;;;;;;12.40;99.90;;;;;;4969990;28;19956;-57
2022/10/13 10:00:43;;;;;;;;;;;12.50;99.90;;;;;;5055287;28;19952;-55
2022/10/13 10:03:17;;;;;;;;;;;12.60;99.90;;;;;;5056596;28;19932;-56
2022/10/13 10:06:04;;;;;;;;;;;12.70;99.90;;;;;;5010741;28;19934;-56
2022/10/13 10:08:45;;;;;;;;;;;12.80;99.90;;;;;;5048692;28;19935;-56
2022/10/13 10:11:41;;;;;;;;;;;12.90;99.90;;;;;;5080413;28;19924;-56
2022/10/13 10:14:28;;;;;;;;;;;13.00;99.90;;;;;;4973089;28;19937;-56
2022/10/13 10:17:05;;;;;;;;;;;13.10;99.90;;;;;;4968232;28;19933;-57
2022/10/13 10:19:45;;;;;;;;;;;13.20;99.90;;;;;;5068113;28;20315;-57
2022/10/13 10:22:18;;;;;;;;;;;13.30;99.90;;;;;;4978685;28;19937;-57
2022/10/13 10:24:58;;;;;;;;;;;13.40;99.90;;;;;;5022394;28;19926;-57
2022/10/13 10:27:38;;;;;;;;;;;13.50;99.90;;;;;;5041386;28;19926;-57
2022/10/13 10:30:17;;;;;;;;;;;13.60;99.90;;;;;;4996209;28;19937;-57
2022/10/13 10:32:44;;;;;;;;;;;13.60;99.90;;;;;;5003772;28;20607;-57
2022/10/13 10:35:14;;;;;;;;;;;13.60;99.90;;;;;;5030708;28;19933;-56
2022/10/13 10:37:45;;;;;;;;;;;13.60;99.90;;;;;;4985530;28;20383;-57
2022/10/13 10:40:16;;;;;;;;;;;13.60;99.90;;;;;;4969168;28;19926;-56
2022/10/13 10:42:46;;;;;;;;;;;13.60;99.90;;;;;;4998250;28;20386;-57
2022/10/13 10:45:23;;;;;;;;;;;13.60;99.90;;;;;;5064400;28;19924;-57
2022/10/13 10:47:54;;;;;;;;;;;13.60;99.90;;;;;;5036329;28;19957;-56
2022/10/13 10:50:28;;;;;;;;;;;13.80;99.90;;;;;;5040903;28;19926;-57
2022/10/13 10:52:59;;;;;;;;;;;13.90;99.90;;;;;;5007846;28;20338;-57
2022/10/13 10:55:46;;;;;;;;;;;14.00;99.90;;;;;;4989941;28;19949;-57
2022/10/13 10:58:19;;;;;;;;;;;14.20;99.90;;;;;;4976329;28;19933;-56
2022/10/13 11:01:01;;;;;;;;;;;14.30;99.90;;;;;;4968937;28;19926;-56
2022/10/13 11:03:31;;;;;;;;;;;14.40;99.90;;;;;;4971806;28;19937;-56
2022/10/13 11:06:02;;;;;;;;;;;14.60;99.90;;;;;;5044251;28;19933;-56
2022/10/13 11:08:36;;;;;;;;;;;14.60;99.90;;;;;;4970423;28;19934;-56
2022/10/13 11:11:19;;;;;;;;;;;14.80;99.90;;;;;;4964937;28;19933;-57
2022/10/13 11:13:55;;;;;;;;;;;14.90;99.90;;;;;;4986401;28;20396;-55
2022/10/13 11:16:26;;;;;;;;;;;15.10;99.90;;;;;;4988162;28;19937;-56
2022/10/13 11:18:53;;;;;;;;;;;15.30;99.90;;;;;;5000413;28;19926;-56
2022/10/13 11:21:24;;;;;;;;;;;15.60;99.90;;;;;;4968603;28;20429;-56
2022/10/13 11:23:52;;;;;;;;;;;15.80;99.90;;;;;;5031407;28;19926;-57
2022/10/13 11:26:24;;;;;;;;;;;16.00;99.90;;;;;;4972755;28;19942;-57
2022/10/13 11:28:52;;;;;;;;;;;16.20;99.90;;;;;;4982561;28;19933;-57
2022/10/13 11:31:22;;;;;;;;;;;16.40;99.90;;;;;;4950113;28;19934;-57
2022/10/13 11:33:50;;;;;;;;;;;16.60;99.90;;;;;;5042079;28;19931;-57
2022/10/13 11:36:36;;;;;;;;;;;16.70;99.90;;;;;;5014377;28;19949;-57
2022/10/13 11:39:12;;;;;;;;;;;16.70;99.90;;;;;;5039148;28;19931;-57
2022/10/13 11:41:47;;;;;;;;;;;17.00;99.90;;;;;;5085405;28;19935;-58
2022/10/13 11:44:20;;;;;;;;;;;17.00;99.90;;;;;;5069262;28;19978;-57
2022/10/13 11:46:48;;;;;;;;;;;16.80;99.90;;;;;;5051833;28;20405;-57
2022/10/13 11:49:34;;;;;;;;;;;16.60;99.90;;;;;;5068995;28;19931;-58
2022/10/13 11:52:05;;;;;;;;;;;16.40;99.90;;;;;;4984326;28;20280;-57
2022/10/13 11:54:39;;;;;;;;;;;16.80;99.90;;;;;;5069430;28;20299;-57
2022/10/13 11:57:17;;;;;;;;;;;17.40;99.90;;;;;;5084451;28;19924;-57
2022/10/13 11:59:45;;;;;;;;;;;17.80;99.90;;;;;;4963355;28;19933;-57
2022/10/13 12:02:15;;;;;;;;;;;17.80;99.90;;;;;;5026061;28;19926;-57
2022/10/13 12:05:04;;;;;;;;;;;17.70;99.90;;;;;;5069259;28;19925;-57
2022/10/13 12:07:38;;;;;;;;;;;17.80;99.90;;;;;;5003324;28;20322;-58
2022/10/13 12:10:06;;;;;;;;;;;18.40;99.90;;;;;;5069270;28;19925;-58
2022/10/13 12:12:34;;;;;;;;;;;18.90;99.90;;;;;;5069095;28;20295;-58
2022/10/13 12:15:23;;;;;;;;;;;19.40;99.90;;;;;;5069537;28;20318;-58
2022/10/13 12:17:51;;;;;;;;;;;19.80;99.90;;;;;;5068816;28;19935;-58
2022/10/13 12:20:20;;;;;;;;;;;20.00;99.80;;;;;;5069183;28;19925;-58
2022/10/13 12:22:47;;;;;;;;;;;20.20;99.90;;;;;;4992073;28;19924;-58
2022/10/13 12:25:16;;;;;;;;;;;20.10;97.70;;;;;;5084438;28;19924;-58
2022/10/13 12:27:48;;;;;;;;;;;19.90;98.50;;;;;;5050734;28;20323;-57
2022/10/13 12:30:26;;;;;;;;;;;19.90;98.70;;;;;;5084592;28;19928;-57
2022/10/13 12:32:54;;;;;;;;;;;20.30;98.80;;;;;;5068870;28;19925;-57
2022/10/13 12:35:27;;;;;;;;;;;20.70;98.00;;;;;;5069199;28;20283;-57
2022/10/13 12:37:55;;;;;;;;;;;21.20;97.50;;;;;;4982658;28;19924;-57
2022/10/13 12:40:23;;;;;;;;;;;21.50;95.90;;;;;;5068732;28;19935;-57
2022/10/13 12:42:51;;;;;;;;;;;21.70;96.10;;;;;;5029344;28;19927;-58
2022/10/13 12:45:20;;;;;;;;;;;21.80;94.20;;;;;;4967304;28;19926;-57
2022/10/13 12:47:50;;;;;;;;;;;21.90;93.30;;;;;;4989125;28;19924;-58
2022/10/13 12:50:23;;;;;;;;;;;22.00;92.30;;;;;;5068176;28;19932;-58
2022/10/13 12:52:52;;;;;;;;;;;21.90;91.80;;;;;;5014663;28;19925;-58
2022/10/13 12:55:20;;;;;;;;;;;22.10;93.10;;;;;;5068759;28;19943;-57
2022/10/13 12:57:48;;;;;;;;;;;22.30;92.40;;;;;;5068291;28;19929;-57
2022/10/13 13:00:16;;;;;;;;;;;22.40;92.30;;;;;;5050876;28;19928;-57
2022/10/13 13:02:53;;;;;;;;;;;22.20;90.90;;;;;;5066701;28;19935;-57
2022/10/13 13:05:36;;;;;;;;;;;21.60;90.20;;;;;;5012493;28;19937;-58
2022/10/13 13:08:21;;;;;;;;;;;20.80;91.00;;;;;;4987519;28;20486;-57
2022/10/13 13:10:55;;;;;;;;;;;20.50;92.50;;;;;;5072547;28;20261;-57
2022/10/13 13:13:23;;;;;;;;;;;20.60;92.80;;;;;;5072197;28;19935;-57
2022/10/13 13:15:50;;;;;;;;;;;21.00;93.40;;;;;;5072587;28;19932;-58
2022/10/13 13:18:30;;;;;;;;;;;21.20;92.90;;;;;;5071881;28;19931;-57
2022/10/13 13:20:58;;;;;;;;;;;20.90;91.90;;;;;;5065741;28;19924;-57
2022/10/13 13:23:32;;;;;;;;;;;20.20;91.80;;;;;;5020812;28;19936;-57
2022/10/13 13:26:05;;;;;;;;;;;19.50;92.10;;;;;;5072378;28;19951;-57
2022/10/13 13:28:33;;;;;;;;;;;18.80;92.80;;;;;;5071438;28;20458;-57
2022/10/13 13:31:02;;;;;;;;;;;18.30;94.20;;;;;;5088205;28;19931;-58
2022/10/13 13:33:30;;;;;;;;;;;18.00;95.50;;;;;;5072065;28;19931;-58
2022/10/13 13:35:58;;;;;;;;;;;17.80;95.60;;;;;;5085801;28;19924;-57
2022/10/13 13:38:25;;;;;;;;;;;17.70;96.00;;;;;;5006696;28;19932;-58
2022/10/13 13:40:53;;;;;;;;;;;17.80;97.10;;;;;;5086634;28;19924;-58
2022/10/13 13:43:21;;;;;;;;;;;18.10;98.10;;;;;;5054333;28;20505;-58
2022/10/13 13:45:48;;;;;;;;;;;18.90;97.00;;;;;;5071792;28;20329;-58
2022/10/13 13:48:15;;;;;;;;;;;19.60;94.90;;;;;;5054027;28;20383;-58
2022/10/13 13:50:43;;;;;;;;;;;19.70;93.50;;;;;;5071816;28;19928;-58
2022/10/13 13:53:10;;;;;;;;;;;19.90;93.60;;;;;;5018491;28;19928;-58
2022/10/13 13:55:38;;;;;;;;;;;20.20;94.20;;;;;;5068638;28;19935;-58
2022/10/13 13:58:09;;;;;;;;;;;20.50;93.20;;;;;;5070811;28;20303;-57
2022/10/13 14:00:36;;;;;;;;;;;20.40;92.80;;;;;;5071498;28;19924;-57
2022/10/13 14:03:04;;;;;;;;;;;19.90;92.00;;;;;;5036688;28;19953;-58
2022/10/13 14:05:31;;;;;;;;;;;19.50;92.40;;;;;;5035771;28;20412;-58
2022/10/13 14:07:59;;;;;;;;;;;18.90;92.60;;;;;;4984594;28;19950;-58
2022/10/13 14:10:28;;;;;;;;;;;18.50;93.40;;;;;;4966972;28;19927;-57
2022/10/13 14:12:55;;;;;;;;;;;18.10;93.90;;;;;;4963021;28;19926;-57
2022/10/13 14:15:22;;;;;;;;;;;17.70;94.60;;;;;;4977192;28;19930;-57
2022/10/13 14:17:56;;;;;;;;;;;17.40;95.20;;;;;;4994983;28;20395;-57
2022/10/13 14:20:23;;;;;;;;;;;17.20;96.10;;;;;;5025400;28;19930;-58
2022/10/13 14:22:50;;;;;;;;;;;17.00;96.70;;;;;;4988725;28;19932;-58
2022/10/13 14:25:18;;;;;;;;;;;16.90;97.40;;;;;;5051935;28;19931;-57
2022/10/13 14:27:45;;;;;;;;;;;16.90;97.90;;;;;;5067744;28;19931;-57
2022/10/13 14:30:13;;;;;;;;;;;16.80;98.10;;;;;;5051046;28;19936;-58
2022/10/13 14:32:41;;;;;;;;;;;16.80;98.50;;;;;;5086441;28;19931;-57
2022/10/13 14:35:08;;;;;;;;;;;16.80;98.50;;;;;;5070612;28;19929;-58
2022/10/13 14:37:36;;;;;;;;;;;16.70;98.20;;;;;;5020643;28;19927;-57